Time;durP1;ratioP1;P1;durP2;ratioP2;P2;SDS_P1;SDS_P2;PMS_P1;PMS_P2;Temp;Humidity;BMP_temperature;BMP_pressure;BME280_temperature;BME280_humidity;BME280_pressure;Samples;Min_cycle;Max_cycle;Signal;HPM_P1;HPM_P2
2022/11/24 00:00:23;;;;;;;8.82;2.53;;;7.90;99.90;;;;;;5002172;28;20042;-74
2022/11/24 00:02:49;;;;;;;4.70;1.95;;;7.90;99.90;;;;;;4996213;28;20038;-74
2022/11/24 00:05:15;;;;;;;7.07;2.25;;;7.90;99.90;;;;;;5002972;28;20034;-74
2022/11/24 00:07:41;;;;;;;4.50;1.80;;;7.90;99.90;;;;;;4999468;28;20058;-74
2022/11/24 00:10:07;;;;;;;6.97;1.63;;;7.90;99.90;;;;;;5002101;28;20046;-74
2022/11/24 00:12:32;;;;;;;3.97;1.90;;;7.90;99.90;;;;;;5000490;28;20439;-74
2022/11/24 00:14:58;;;;;;;4.15;2.22;;;7.80;99.90;;;;;;4987380;28;20038;-74
2022/11/24 00:17:24;;;;;;;3.72;1.92;;;7.80;99.90;;;;;;4987887;28;20040;-74
2022/11/24 00:19:49;;;;;;;5.20;1.65;;;7.80;99.90;;;;;;4997979;28;20112;-74
2022/11/24 00:22:15;;;;;;;4.72;1.83;;;7.80;99.90;;;;;;5002683;28;20038;-74
2022/11/24 00:24:40;;;;;;;9.07;1.90;;;7.70;99.90;;;;;;5004716;28;20057;-74
2022/11/24 00:27:06;;;;;;;5.95;2.17;;;7.70;99.90;;;;;;4997756;28;20043;-74
2022/11/24 00:29:32;;;;;;;3.88;1.83;;;7.70;99.90;;;;;;4999945;28;20033;-74
2022/11/24 00:31:57;;;;;;;6.55;1.63;;;7.70;99.90;;;;;;4999071;28;20476;-74
2022/11/24 00:34:23;;;;;;;4.95;1.42;;;7.70;99.90;;;;;;4996467;28;20039;-74
2022/11/24 00:36:49;;;;;;;8.63;1.77;;;7.70;99.90;;;;;;4995470;28;20027;-74
2022/11/24 00:39:14;;;;;;;6.35;1.90;;;7.70;99.90;;;;;;4995558;28;20034;-74
2022/11/24 00:41:41;;;;;;;7.38;1.67;;;7.70;99.90;;;;;;4979297;28;20515;-74
2022/11/24 00:44:07;;;;;;;3.30;1.92;;;7.60;99.90;;;;;;4999231;28;20045;-74
2022/11/24 00:46:33;;;;;;;7.60;1.85;;;7.70;99.90;;;;;;4996999;28;20034;-74
2022/11/24 00:48:59;;;;;;;4.28;1.40;;;7.60;99.90;;;;;;5004363;28;20096;-74
2022/11/24 00:51:26;;;;;;;4.25;1.35;;;7.60;99.90;;;;;;5002931;28;20040;-74
2022/11/24 00:53:53;;;;;;;4.57;1.80;;;7.60;99.90;;;;;;4996455;28;20045;-74
2022/11/24 00:56:18;;;;;;;4.47;1.70;;;7.60;99.90;;;;;;5003054;28;20060;-74
2022/11/24 00:58:44;;;;;;;7.05;1.83;;;7.60;99.90;;;;;;4998488;28;20061;-74
2022/11/24 01:01:15;;;;;;;3.38;1.33;;;7.60;99.90;;;;;;4999060;28;20041;-74
2022/11/24 01:03:42;;;;;;;9.73;1.55;;;7.60;99.90;;;;;;4995588;28;20046;-74
2022/11/24 01:06:10;;;;;;;9.18;2.63;;;7.60;99.90;;;;;;4990184;28;20042;-74
2022/11/24 01:08:37;;;;;;;5.30;1.67;;;7.50;99.90;;;;;;5000266;28;20046;-74
2022/11/24 01:11:15;;;;;;;7.53;2.22;;;7.50;99.90;;;;;;5001403;28;20069;-74
2022/11/24 01:13:41;;;;;;;4.72;1.45;;;7.50;99.90;;;;;;4979692;28;20042;-74
2022/11/24 01:16:29;;;;;;;1.98;1.00;;;7.50;99.90;;;;;;5000024;28;20117;-74
2022/11/24 01:18:55;;;;;;;4.90;2.05;;;7.50;99.90;;;;;;4984609;28;20079;-74
2022/11/24 01:21:21;;;;;;;3.38;1.48;;;7.50;99.90;;;;;;4983518;28;20095;-74
2022/11/24 01:23:47;;;;;;;3.17;1.33;;;7.50;99.90;;;;;;5001397;28;20034;-74
2022/11/24 01:26:16;;;;;;;8.00;1.63;;;7.50;99.90;;;;;;4987194;28;20048;-74
2022/11/24 01:28:42;;;;;;;2.25;1.02;;;7.50;99.90;;;;;;4996327;28;20069;-74
2022/11/24 01:31:08;;;;;;;6.82;1.40;;;7.50;99.90;;;;;;4996577;28;20065;-74
2022/11/24 01:33:35;;;;;;;5.75;1.20;;;7.50;99.90;;;;;;5003695;28;20100;-74
2022/11/24 01:36:01;;;;;;;4.75;1.27;;;7.50;99.90;;;;;;4999539;28;20547;-74
2022/11/24 01:38:27;;;;;;;2.30;1.45;;;7.50;99.90;;;;;;4983232;28;20046;-74
2022/11/24 01:41:06;;;;;;;3.25;1.35;;;7.50;99.90;;;;;;4999566;28;20037;-74
2022/11/24 01:43:32;;;;;;;1.58;0.75;;;7.50;99.90;;;;;;4983665;28;20046;-74
2022/11/24 01:46:04;;;;;;;6.00;1.42;;;7.50;99.90;;;;;;4998967;28;20030;-74
2022/11/24 01:48:39;;;;;;;8.20;2.03;;;7.50;99.90;;;;;;4983345;28;20116;-74
2022/11/24 01:51:20;;;;;;;4.05;1.23;;;7.50;99.90;;;;;;4984633;28;20038;-74
2022/11/24 01:53:52;;;;;;;2.38;1.00;;;7.50;99.90;;;;;;5016256;28;20034;-74
2022/11/24 01:56:18;;;;;;;1.40;0.80;;;7.50;99.90;;;;;;5001194;28;20053;-74
2022/11/24 01:58:45;;;;;;;1.65;0.60;;;7.50;99.90;;;;;;4997868;28;20069;-74
2022/11/24 02:01:12;;;;;;;5.75;1.08;;;7.60;99.90;;;;;;5013537;28;20034;-74
2022/11/24 02:03:40;;;;;;;5.50;1.10;;;7.50;99.90;;;;;;5001305;28;20117;-74
2022/11/24 02:06:26;;;;;;;2.67;1.00;;;7.50;99.90;;;;;;4995216;28;20038;-74
2022/11/24 02:09:01;;;;;;;5.63;0.88;;;7.50;99.90;;;;;;4996920;28;20096;-74
2022/11/24 02:11:32;;;;;;;3.25;1.35;;;7.50;99.90;;;;;;4996462;28;20030;-74
2022/11/24 02:13:58;;;;;;;12.90;1.80;;;7.50;99.90;;;;;;5000793;28;20097;-74
2022/11/24 02:16:24;;;;;;;3.63;0.73;;;7.50;99.90;;;;;;4978626;28;20030;-74
2022/11/24 02:18:50;;;;;;;4.30;0.95;;;7.50;99.90;;;;;;5001239;28;20128;-74
2022/11/24 02:21:16;;;;;;;7.30;1.27;;;7.50;99.90;;;;;;5001200;28;20052;-74
2022/11/24 02:24:14;;;;;;;5.82;1.45;;;7.50;99.90;;;;;;4993590;28;20132;-74
2022/11/24 02:26:48;;;;;;;3.30;0.90;;;7.50;99.90;;;;;;4995691;28;20060;-74
2022/11/24 02:29:14;;;;;;;1.85;1.13;;;7.50;99.90;;;;;;4999063;28;20049;-74
2022/11/24 02:31:48;;;;;;;5.28;1.40;;;7.50;99.90;;;;;;4983084;28;20077;-74
2022/11/24 02:34:14;;;;;;;6.22;1.10;;;7.50;99.90;;;;;;4997028;28;20038;-74
2022/11/24 02:36:40;;;;;;;7.25;1.10;;;7.50;99.90;;;;;;4995160;28;20032;-74
2022/11/24 02:39:11;;;;;;;2.17;1.05;;;7.50;99.90;;;;;;4999457;28;20088;-74
2022/11/24 02:41:38;;;;;;;6.55;1.23;;;7.50;99.90;;;;;;4999332;28;20045;-74
2022/11/24 02:44:04;;;;;;;6.65;1.65;;;7.50;99.90;;;;;;4999807;28;20042;-74
2022/11/24 02:46:30;;;;;;;2.80;0.93;;;7.50;99.90;;;;;;4985282;28;20692;-74
2022/11/24 02:48:56;;;;;;;7.20;1.65;;;7.50;99.90;;;;;;4997265;28;20049;-74
2022/11/24 02:51:21;;;;;;;4.30;0.85;;;7.50;99.90;;;;;;4999534;28;20038;-74
2022/11/24 02:53:47;;;;;;;8.52;1.67;;;7.50;99.90;;;;;;5000316;28;20048;-74
2022/11/24 02:56:13;;;;;;;1.63;0.85;;;7.50;99.90;;;;;;5018590;28;20041;-74
2022/11/24 02:58:38;;;;;;;7.15;1.08;;;7.50;99.90;;;;;;5000945;28;20406;-74
2022/11/24 03:01:04;;;;;;;3.28;0.95;;;7.50;99.90;;;;;;4979803;28;20037;-74
2022/11/24 03:03:30;;;;;;;2.55;1.10;;;7.50;99.90;;;;;;4984722;28;20041;-74
2022/11/24 03:05:55;;;;;;;4.05;0.70;;;7.50;99.90;;;;;;5001505;28;20038;-74
2022/11/24 03:08:21;;;;;;;4.28;0.98;;;7.50;99.90;;;;;;5002866;28;20040;-74
2022/11/24 03:10:48;;;;;;;5.10;1.23;;;7.60;99.90;;;;;;4997199;28;20491;-74
2022/11/24 03:13:13;;;;;;;6.85;1.35;;;7.50;99.90;;;;;;4998041;28;20108;-74
2022/11/24 03:15:40;;;;;;;8.75;1.25;;;7.50;99.90;;;;;;4993320;28;20046;-74
2022/11/24 03:18:05;;;;;;;2.28;0.82;;;7.50;99.90;;;;;;4997121;28;20048;-74
2022/11/24 03:20:31;;;;;;;1.85;0.75;;;7.50;99.90;;;;;;4999337;28;20046;-74
2022/11/24 03:22:57;;;;;;;1.15;0.73;;;7.50;99.90;;;;;;4991780;28;20127;-74
2022/11/24 03:25:22;;;;;;;5.90;0.80;;;7.50;99.90;;;;;;4992326;28;20041;-74
2022/11/24 03:27:48;;;;;;;7.00;1.52;;;7.50;99.90;;;;;;4995939;28;20526;-74
2022/11/24 03:30:14;;;;;;;3.80;1.13;;;7.50;99.90;;;;;;4979598;28;20049;-74
2022/11/24 03:32:40;;;;;;;1.63;0.82;;;7.60;99.90;;;;;;4999494;28;20033;-74
2022/11/24 03:35:07;;;;;;;3.03;1.13;;;7.60;99.90;;;;;;5003399;28;20388;-74
2022/11/24 03:37:33;;;;;;;6.60;1.10;;;7.60;99.90;;;;;;5006570;28;20030;-74
2022/11/24 03:39:58;;;;;;;11.73;1.25;;;7.60;99.90;;;;;;5003210;28;20030;-74
2022/11/24 03:42:24;;;;;;;2.28;1.20;;;7.70;99.90;;;;;;5004222;28;20049;-74
2022/11/24 03:44:50;;;;;;;8.85;1.08;;;7.70;99.90;;;;;;5000933;28;20707;-74
2022/11/24 03:47:16;;;;;;;3.30;0.90;;;7.70;99.90;;;;;;4999921;28;20034;-74
2022/11/24 03:49:42;;;;;;;6.70;1.20;;;7.60;99.90;;;;;;5001985;28;20426;-74
2022/11/24 03:52:08;;;;;;;3.00;0.93;;;7.60;99.90;;;;;;4991508;28;20061;-74
2022/11/24 03:54:34;;;;;;;4.70;0.70;;;7.60;99.90;;;;;;4984589;28;20045;-74
2022/11/24 03:57:00;;;;;;;1.70;0.60;;;7.60;99.90;;;;;;5003791;28;20041;-74
2022/11/24 03:59:25;;;;;;;8.02;1.27;;;7.50;99.90;;;;;;4996819;28;20069;-74
2022/11/24 04:01:51;;;;;;;6.40;1.30;;;7.60;99.90;;;;;;5001321;28;20045;-74
2022/11/24 04:04:16;;;;;;;6.28;1.20;;;7.60;99.90;;;;;;4997636;28;20092;-74
2022/11/24 04:06:42;;;;;;;3.53;0.93;;;7.60;99.90;;;;;;5002212;28;20042;-74
2022/11/24 04:09:08;;;;;;;5.05;1.08;;;7.60;99.90;;;;;;5003203;28;20049;-74
2022/11/24 04:14:18;;;;;;;1.75;0.70;;;7.60;99.90;;;;;;5022976;28;20104;-74
2022/11/24 04:16:44;;;;;;;14.20;2.15;;;7.50;99.90;;;;;;5004079;28;20042;-74
2022/11/24 04:19:09;;;;;;;1.88;0.73;;;7.50;99.90;;;;;;5000286;28;20088;-74
2022/11/24 04:21:35;;;;;;;4.50;0.80;;;7.60;99.90;;;;;;5001930;28;20045;-74
2022/11/24 04:24:00;;;;;;;13.63;1.55;;;7.60;99.90;;;;;;5004737;28;20115;-74
2022/11/24 04:26:26;;;;;;;1.05;0.60;;;7.60;99.90;;;;;;5003179;28;20038;-74
2022/11/24 04:28:52;;;;;;;3.03;0.73;;;7.60;99.90;;;;;;4998303;28;20046;-74
2022/11/24 04:31:17;;;;;;;4.28;1.00;;;7.50;99.90;;;;;;5004633;28;20168;-74
2022/11/24 04:33:43;;;;;;;5.68;0.77;;;7.60;99.90;;;;;;5000228;28;20117;-74
2022/11/24 04:36:09;;;;;;;2.83;0.73;;;7.50;99.90;;;;;;5001555;28;20041;-74
2022/11/24 04:38:34;;;;;;;1.05;0.40;;;7.50;99.90;;;;;;4993019;28;20037;-74
2022/11/24 04:41:03;;;;;;;4.15;0.70;;;7.50;99.90;;;;;;5008356;28;20048;-74
2022/11/24 04:43:30;;;;;;;1.52;0.40;;;7.50;99.90;;;;;;5019516;28;20618;-74
2022/11/24 04:45:59;;;;;;;3.85;0.85;;;7.50;99.90;;;;;;4978056;28;20045;-74
2022/11/24 04:48:24;;;;;;;2.85;0.88;;;7.50;99.90;;;;;;4996470;28;20042;-74
2022/11/24 04:50:50;;;;;;;3.13;0.80;;;7.50;99.90;;;;;;4987505;28;20085;-74
2022/11/24 04:53:16;;;;;;;4.65;1.67;;;7.50;99.90;;;;;;5003866;28;20510;-74
2022/11/24 04:55:41;;;;;;;5.15;0.65;;;7.50;99.90;;;;;;4995211;28;20124;-74
2022/11/24 04:58:10;;;;;;;6.22;1.08;;;7.50;99.90;;;;;;5000414;28;20030;-74
2022/11/24 05:00:36;;;;;;;6.63;0.73;;;7.50;99.90;;;;;;5000802;28;20054;-74
2022/11/24 05:03:02;;;;;;;5.45;0.73;;;7.50;99.90;;;;;;4997767;28;21098;-74
2022/11/24 05:05:28;;;;;;;2.72;0.77;;;7.50;99.90;;;;;;4986370;28;20038;-74
2022/11/24 05:07:54;;;;;;;2.00;0.70;;;7.50;99.90;;;;;;5001437;28;20442;-74
2022/11/24 05:10:35;;;;;;;1.73;0.68;;;7.50;99.90;;;;;;5001329;28;20041;-74
2022/11/24 05:13:12;;;;;;;6.25;0.90;;;7.50;99.90;;;;;;4998547;28;20046;-74
2022/11/24 05:15:39;;;;;;;4.15;0.50;;;7.50;99.90;;;;;;4985682;28;20038;-74
2022/11/24 05:18:12;;;;;;;2.38;0.45;;;7.50;99.90;;;;;;4998253;28;20045;-74
2022/11/24 05:20:38;;;;;;;4.63;0.70;;;7.50;99.90;;;;;;4999086;28;20515;-74
2022/11/24 05:23:06;;;;;;;3.75;0.80;;;7.40;99.90;;;;;;4999226;28;20057;-74
2022/11/24 05:25:33;;;;;;;6.85;0.90;;;7.40;99.90;;;;;;5001524;28;20042;-74
2022/11/24 05:28:03;;;;;;;4.47;0.82;;;7.40;99.90;;;;;;5000003;28;20033;-74
2022/11/24 05:30:30;;;;;;;5.45;0.90;;;7.40;99.90;;;;;;5012285;28;20191;-74
2022/11/24 05:32:55;;;;;;;4.55;0.60;;;7.40;99.90;;;;;;4999651;28;20034;-74
2022/11/24 05:35:22;;;;;;;6.05;0.93;;;7.40;99.90;;;;;;4995544;28;20038;-74
2022/11/24 05:37:47;;;;;;;6.22;1.08;;;7.40;99.90;;;;;;4976348;28;20039;-74
2022/11/24 05:40:13;;;;;;;2.58;1.33;;;7.40;99.90;;;;;;5000466;28;20053;-74
2022/11/24 05:42:39;;;;;;;3.95;0.55;;;7.30;99.90;;;;;;5021398;28;20452;-75
2022/11/24 05:45:05;;;;;;;1.15;0.50;;;7.30;99.90;;;;;;5001890;28;20026;-74
2022/11/24 05:47:31;;;;;;;6.53;1.10;;;7.30;99.90;;;;;;4995017;28;20045;-74
2022/11/24 05:49:57;;;;;;;1.60;0.75;;;7.40;99.90;;;;;;4998532;28;20209;-74
2022/11/24 05:52:23;;;;;;;8.05;0.80;;;7.30;99.90;;;;;;4976656;28;20507;-74
2022/11/24 05:54:48;;;;;;;3.63;1.00;;;7.30;99.90;;;;;;4988007;28;20484;-74
2022/11/24 05:57:16;;;;;;;4.60;1.23;;;7.30;99.90;;;;;;4997656;28;20037;-75
2022/11/24 05:59:41;;;;;;;5.63;1.25;;;7.30;99.90;;;;;;4997417;28;20057;-74
2022/11/24 06:02:07;;;;;;;3.53;0.70;;;7.30;99.90;;;;;;4979114;28;20041;-74
2022/11/24 06:04:32;;;;;;;3.25;0.88;;;7.30;99.90;;;;;;4998033;28;20052;-74
2022/11/24 06:06:58;;;;;;;4.07;0.80;;;7.30;99.90;;;;;;4998207;28;20044;-74
2022/11/24 06:09:23;;;;;;;5.22;0.40;;;7.30;99.90;;;;;;5001258;28;20053;-74
2022/11/24 06:11:49;;;;;;;7.70;0.73;;;7.20;99.90;;;;;;4998020;28;20050;-74
2022/11/24 06:14:14;;;;;;;8.48;0.90;;;7.20;99.90;;;;;;4996859;28;20030;-74
2022/11/24 06:16:40;;;;;;;3.42;0.65;;;7.30;99.90;;;;;;5010258;28;20065;-74
2022/11/24 06:19:06;;;;;;;2.05;0.80;;;7.30;99.90;;;;;;4994448;28;20129;-74
2022/11/24 06:21:31;;;;;;;1.98;0.40;;;7.20;99.90;;;;;;4986015;28;20042;-74
2022/11/24 06:23:57;;;;;;;5.38;0.70;;;7.20;99.90;;;;;;4995351;28;20418;-74
2022/11/24 06:26:23;;;;;;;6.97;0.65;;;7.20;99.90;;;;;;5000260;28;20121;-75
2022/11/24 06:28:48;;;;;;;5.03;1.02;;;7.20;99.90;;;;;;4980472;28;20054;-74
2022/11/24 06:31:14;;;;;;;2.78;0.80;;;7.20;99.90;;;;;;4996137;28;20138;-74
2022/11/24 06:33:40;;;;;;;3.13;0.52;;;7.20;99.90;;;;;;5000087;28;20038;-74
2022/11/24 06:36:08;;;;;;;4.95;0.93;;;7.20;99.90;;;;;;5000438;28;20038;-75
2022/11/24 06:38:35;;;;;;;2.28;0.68;;;7.20;99.90;;;;;;4993302;28;21863;-74
2022/11/24 06:41:03;;;;;;;5.50;1.08;;;7.20;99.90;;;;;;4996148;28;20042;-75
2022/11/24 06:43:29;;;;;;;4.63;0.47;;;7.20;99.90;;;;;;4997916;28;20168;-74
2022/11/24 06:45:55;;;;;;;13.35;1.02;;;7.20;99.90;;;;;;5001825;28;20052;-74
2022/11/24 06:48:21;;;;;;;2.53;0.70;;;7.20;99.90;;;;;;4994776;28;20069;-74
2022/11/24 06:50:47;;;;;;;6.05;1.00;;;7.20;99.90;;;;;;4997203;28;20074;-74
2022/11/24 06:53:12;;;;;;;1.02;0.50;;;7.20;99.90;;;;;;4999174;28;20065;-74
2022/11/24 06:55:39;;;;;;;0.88;0.43;;;7.20;99.90;;;;;;4993506;28;20038;-75
2022/11/24 06:58:05;;;;;;;4.60;0.93;;;7.20;99.90;;;;;;4985668;28;20045;-74
2022/11/24 07:00:31;;;;;;;1.95;0.68;;;7.10;99.90;;;;;;4995207;28;20041;-74
2022/11/24 07:02:58;;;;;;;1.92;0.70;;;7.20;99.90;;;;;;5010102;28;20042;-74
2022/11/24 07:05:24;;;;;;;3.63;0.95;;;7.20;99.90;;;;;;4998640;28;20771;-74
2022/11/24 07:07:49;;;;;;;9.15;1.02;;;7.10;99.90;;;;;;5000235;28;20034;-74
2022/11/24 07:10:15;;;;;;;1.67;0.35;;;7.10;99.90;;;;;;4993891;28;20080;-74
2022/11/24 07:12:41;;;;;;;3.78;0.90;;;7.10;99.90;;;;;;4984657;28;20080;-74
2022/11/24 07:15:07;;;;;;;2.47;1.20;;;7.10;99.90;;;;;;4988117;28;20092;-74
2022/11/24 07:17:37;;;;;;;10.90;1.38;;;7.10;99.90;;;;;;5003036;28;20113;-74
2022/11/24 07:20:04;;;;;;;4.60;0.85;;;7.10;99.90;;;;;;5004960;28;20088;-74
2022/11/24 07:22:30;;;;;;;1.65;0.52;;;7.10;99.90;;;;;;4997336;28;20077;-74
2022/11/24 07:24:55;;;;;;;4.85;0.60;;;7.10;99.90;;;;;;4992107;28;20057;-75
2022/11/24 07:27:21;;;;;;;2.97;0.82;;;7.10;99.90;;;;;;4998918;28;20451;-74
2022/11/24 07:29:46;;;;;;;2.97;1.50;;;7.20;99.90;;;;;;4999268;28;20049;-74
2022/11/24 07:32:12;;;;;;;2.70;0.63;;;7.20;99.90;;;;;;4999438;28;20117;-73
2022/11/24 07:34:38;;;;;;;1.95;0.73;;;7.20;99.90;;;;;;4998767;28;20156;-74
2022/11/24 07:37:03;;;;;;;3.25;0.70;;;7.20;99.90;;;;;;5001742;28;20030;-74
2022/11/24 07:39:29;;;;;;;11.18;1.35;;;7.20;99.90;;;;;;4995304;28;20049;-73
2022/11/24 07:41:54;;;;;;;4.10;0.63;;;7.20;99.90;;;;;;4993781;28;20052;-75
2022/11/24 07:44:20;;;;;;;2.88;0.82;;;7.30;99.90;;;;;;4991791;28;20192;-74
2022/11/24 07:46:46;;;;;;;1.75;0.82;;;7.20;99.90;;;;;;4995544;28;21017;-74
2022/11/24 07:49:11;;;;;;;4.43;1.08;;;7.20;99.90;;;;;;4994113;28;20061;-74
2022/11/24 07:51:37;;;;;;;9.90;0.90;;;7.20;99.90;;;;;;4984105;28;20034;-75
2022/11/24 07:54:02;;;;;;;1.42;0.60;;;7.20;99.90;;;;;;5000621;28;20645;-74
2022/11/24 07:56:28;;;;;;;3.30;1.27;;;7.30;99.90;;;;;;4997069;28;20400;-75
2022/11/24 07:58:54;;;;;;;2.90;0.73;;;7.20;99.90;;;;;;4997109;28;20065;-74
2022/11/24 08:01:19;;;;;;;8.63;1.30;;;7.20;99.90;;;;;;4998372;28;20046;-74
2022/11/24 08:03:45;;;;;;;3.03;1.00;;;7.20;99.90;;;;;;4999484;28;20033;-74
2022/11/24 08:06:12;;;;;;;2.00;0.60;;;7.20;99.90;;;;;;5005646;28;20146;-74
2022/11/24 08:08:38;;;;;;;1.48;0.45;;;7.20;99.90;;;;;;4976548;28;20388;-74
2022/11/24 08:11:06;;;;;;;4.00;1.50;;;7.20;99.90;;;;;;5004013;28;20041;-75
2022/11/24 08:13:32;;;;;;;3.33;1.25;;;7.20;99.90;;;;;;5014240;28;20038;-75
2022/11/24 08:15:57;;;;;;;4.60;1.35;;;7.20;99.90;;;;;;4992975;28;20042;-74
2022/11/24 08:18:23;;;;;;;5.68;0.80;;;7.20;99.90;;;;;;4996699;28;20038;-74
2022/11/24 08:20:49;;;;;;;3.50;0.90;;;7.20;99.90;;;;;;4999060;28;20096;-77
2022/11/24 08:23:15;;;;;;;1.85;1.20;;;7.20;99.90;;;;;;4998752;28;20121;-74
2022/11/24 08:25:40;;;;;;;3.20;0.77;;;7.20;99.90;;;;;;4998558;28;20064;-74
2022/11/24 08:28:06;;;;;;;1.38;0.80;;;7.20;99.90;;;;;;4999326;28;20109;-74
2022/11/24 08:30:31;;;;;;;5.55;1.15;;;7.20;99.90;;;;;;5002631;28;20049;-74
2022/11/24 08:33:00;;;;;;;1.73;0.85;;;7.30;99.90;;;;;;5009992;28;20045;-74
2022/11/24 08:35:27;;;;;;;4.78;1.13;;;7.20;99.90;;;;;;5011090;28;20487;-74
2022/11/24 08:37:53;;;;;;;2.08;0.73;;;7.30;99.90;;;;;;5010939;28;20100;-74
2022/11/24 08:40:18;;;;;;;3.20;1.20;;;7.30;99.90;;;;;;5009827;28;20120;-74
2022/11/24 08:42:44;;;;;;;3.28;1.20;;;7.40;99.90;;;;;;5010149;28;20418;-74
2022/11/24 08:45:10;;;;;;;2.97;1.02;;;7.40;99.90;;;;;;4992891;28;20541;-75
2022/11/24 08:47:36;;;;;;;2.58;0.98;;;7.50;99.90;;;;;;5011058;28;20046;-74
2022/11/24 08:50:01;;;;;;;2.45;1.45;;;7.50;99.90;;;;;;4993901;28;20045;-74
2022/11/24 08:52:27;;;;;;;2.40;1.02;;;7.60;99.90;;;;;;5010832;28;20045;-74
2022/11/24 08:54:53;;;;;;;4.97;1.00;;;7.60;99.90;;;;;;5009378;28;20124;-74
2022/11/24 08:57:18;;;;;;;2.33;1.13;;;7.70;99.90;;;;;;5010684;28;20038;-74
2022/11/24 08:59:45;;;;;;;2.53;1.20;;;7.70;99.90;;;;;;5007869;28;20537;-74
2022/11/24 09:02:13;;;;;;;2.33;1.10;;;7.70;99.90;;;;;;5009366;28;20045;-74
2022/11/24 09:04:39;;;;;;;2.65;1.33;;;7.70;99.90;;;;;;4994678;28;20143;-74
2022/11/24 09:07:05;;;;;;;3.78;1.50;;;7.80;99.90;;;;;;4994441;28;20492;-74
2022/11/24 09:09:30;;;;;;;4.40;1.08;;;7.80;99.90;;;;;;5005413;28;20041;-74
2022/11/24 09:11:56;;;;;;;2.38;1.25;;;7.80;99.90;;;;;;5010608;28;20044;-74
2022/11/24 09:14:21;;;;;;;4.35;1.33;;;7.80;99.90;;;;;;4993006;28;20046;-74
2022/11/24 09:16:47;;;;;;;3.97;1.77;;;7.90;99.90;;;;;;5010718;28;20114;-74
2022/11/24 09:19:13;;;;;;;5.18;0.95;;;7.90;99.90;;;;;;4993674;28;20065;-74
2022/11/24 09:21:38;;;;;;;2.42;0.60;;;7.90;99.90;;;;;;4994378;28;20040;-74
2022/11/24 09:24:06;;;;;;;2.42;1.25;;;8.00;99.90;;;;;;4993665;28;20463;-74
2022/11/24 09:26:34;;;;;;;2.33;0.85;;;8.00;99.90;;;;;;5008432;28;20068;-74
2022/11/24 09:29:01;;;;;;;2.15;0.90;;;8.00;99.90;;;;;;5009356;28;20085;-74
2022/11/24 09:31:30;;;;;;;7.20;1.23;;;8.00;99.90;;;;;;5009696;28;20066;-74
2022/11/24 09:33:55;;;;;;;1.63;0.63;;;8.00;99.90;;;;;;5010156;28;20048;-75
2022/11/24 09:36:22;;;;;;;1.98;0.82;;;8.10;99.90;;;;;;5010512;28;20462;-74
2022/11/24 09:38:48;;;;;;;3.35;0.60;;;8.10;99.90;;;;;;4993516;28;20048;-74
2022/11/24 09:41:17;;;;;;;2.15;0.60;;;8.20;99.90;;;;;;5008842;28;20038;-74
2022/11/24 09:44:03;;;;;;;1.30;0.60;;;8.20;99.90;;;;;;5008543;28;20034;-74
2022/11/24 09:46:35;;;;;;;0.85;0.40;;;8.20;99.90;;;;;;4989343;28;20049;-74
2022/11/24 09:49:02;;;;;;;1.80;0.75;;;8.20;99.90;;;;;;5009771;28;20127;-74
2022/11/24 09:51:31;;;;;;;1.75;0.90;;;8.20;99.90;;;;;;5003849;28;20042;-74
2022/11/24 09:54:14;;;;;;;4.20;0.90;;;8.30;99.90;;;;;;5004732;28;20046;-74
2022/11/24 09:56:41;;;;;;;2.13;0.47;;;8.20;99.90;;;;;;4989446;28;20038;-74
2022/11/24 09:59:20;;;;;;;1.40;0.52;;;8.30;99.90;;;;;;4990262;28;20494;-74
2022/11/24 10:01:47;;;;;;;1.52;0.70;;;8.30;99.90;;;;;;5001779;28;20064;-74
2022/11/24 10:04:20;;;;;;;1.55;0.63;;;8.30;99.90;;;;;;5006020;28;20062;-74
2022/11/24 10:07:04;;;;;;;1.15;0.60;;;8.40;99.90;;;;;;5008590;28;20034;-74
2022/11/24 10:09:38;;;;;;;1.98;0.85;;;8.40;99.90;;;;;;5000458;28;20526;-74
2022/11/24 10:12:26;;;;;;;1.05;0.40;;;8.40;99.90;;;;;;5004756;28;20042;-74
2022/11/24 10:15:13;;;;;;;1.13;0.50;;;8.50;99.90;;;;;;5005542;28;20038;-74
2022/11/24 10:17:56;;;;;;;1.63;0.82;;;8.50;99.90;;;;;;5008604;28;20454;-73
2022/11/24 10:20:40;;;;;;;1.27;0.70;;;8.50;99.90;;;;;;5006807;28;20053;-74
2022/11/24 10:23:34;;;;;;;1.50;0.82;;;8.50;99.90;;;;;;4991493;28;20054;-74
2022/11/24 10:26:06;;;;;;;1.50;0.70;;;8.60;99.90;;;;;;4992323;28;20106;-74
2022/11/24 10:28:45;;;;;;;1.92;0.55;;;8.60;99.90;;;;;;5003137;28;20544;-74
2022/11/24 10:31:29;;;;;;;2.25;0.70;;;8.60;99.90;;;;;;4983621;28;20314;-74
2022/11/24 10:34:02;;;;;;;2.75;0.88;;;8.60;99.90;;;;;;4989221;28;20034;-74
2022/11/24 10:36:42;;;;;;;1.27;0.77;;;8.60;99.90;;;;;;5007611;28;20041;-74
2022/11/24 10:39:28;;;;;;;3.92;1.00;;;8.60;99.90;;;;;;5006761;28;20045;-74
2022/11/24 10:42:19;;;;;;;2.55;1.25;;;8.60;99.90;;;;;;4991518;28;20042;-72
2022/11/24 10:44:44;;;;;;;3.35;1.17;;;8.60;99.90;;;;;;5003298;28;20048;-73
2022/11/24 10:47:21;;;;;;;3.20;0.95;;;8.60;99.90;;;;;;5003199;28;20424;-72
2022/11/24 10:49:56;;;;;;;3.08;1.33;;;8.60;99.90;;;;;;5009330;28;20046;-72
2022/11/24 10:52:25;;;;;;;4.95;0.75;;;8.70;99.90;;;;;;5021206;28;20117;-73
2022/11/24 10:54:54;;;;;;;1.75;0.90;;;8.80;99.90;;;;;;5007071;28;20042;-72
2022/11/24 10:57:29;;;;;;;2.22;0.98;;;8.80;99.90;;;;;;5003565;28;20255;-72
2022/11/24 10:59:55;;;;;;;1.88;1.20;;;8.80;99.90;;;;;;5004779;28;20056;-72
2022/11/24 11:02:37;;;;;;;2.75;1.42;;;8.90;99.90;;;;;;5000430;28;20488;-72
2022/11/24 11:05:26;;;;;;;1.30;0.60;;;8.90;99.90;;;;;;5005753;28;20510;-72
2022/11/24 11:08:19;;;;;;;3.28;0.98;;;9.00;99.90;;;;;;5004308;28;20050;-72
2022/11/24 11:10:47;;;;;;;3.97;1.05;;;9.10;99.90;;;;;;5002126;28;20050;-71
2022/11/24 11:13:24;;;;;;;2.28;1.30;;;9.20;99.90;;;;;;5002666;28;20052;-72
2022/11/24 11:15:50;;;;;;;2.33;1.00;;;9.20;99.90;;;;;;5007029;28;20084;-72
2022/11/24 11:18:18;;;;;;;6.32;1.50;;;9.30;99.90;;;;;;5004387;28;20057;-72
2022/11/24 11:20:54;;;;;;;1.73;0.80;;;9.40;99.90;;;;;;5005248;28;20069;-72
2022/11/24 11:23:33;;;;;;;1.75;0.90;;;9.40;99.90;;;;;;4996587;28;20541;-72
2022/11/24 11:26:30;;;;;;;4.57;1.55;;;9.40;99.90;;;;;;5020672;28;20433;-71
2022/11/24 11:29:13;;;;;;;4.47;1.20;;;9.40;99.90;;;;;;4997946;28;20042;-71
2022/11/24 11:31:39;;;;;;;3.42;0.85;;;9.50;99.90;;;;;;5001008;28;20070;-72
2022/11/24 11:34:17;;;;;;;2.38;0.75;;;9.50;99.90;;;;;;5004572;28;20613;-72
2022/11/24 11:36:46;;;;;;;4.05;1.50;;;9.50;99.90;;;;;;4994729;28;20206;-72
2022/11/24 11:39:25;;;;;;;6.40;1.27;;;9.50;99.90;;;;;;5004555;28;20045;-72
2022/11/24 11:42:13;;;;;;;2.28;0.73;;;9.50;99.90;;;;;;5001733;28;20042;-71
2022/11/24 11:44:58;;;;;;;3.50;1.30;;;9.50;99.90;;;;;;4985685;28;20128;-72
2022/11/24 11:47:32;;;;;;;4.13;1.08;;;9.50;99.90;;;;;;5007620;28;20034;-72
2022/11/24 11:49:58;;;;;;;1.60;0.85;;;9.60;99.90;;;;;;4984034;28;20058;-72
2022/11/24 11:52:44;;;;;;;4.43;1.30;;;9.60;99.90;;;;;;4993297;28;20034;-72
2022/11/24 11:55:25;;;;;;;5.25;0.88;;;9.60;99.90;;;;;;5003715;28;20034;-71
2022/11/24 11:58:22;;;;;;;3.38;0.90;;;9.60;99.90;;;;;;5011883;28;20108;-74
2022/11/24 12:00:53;;;;;;;;;;;9.60;99.90;;;;;;5001442;28;20049;-74
2022/11/24 12:03:26;;;;;;;1.65;0.75;;;9.70;99.90;;;;;;5007279;28;19953;-74
2022/11/24 12:06:20;;;;;;;2.25;0.90;;;9.70;99.90;;;;;;5006592;28;20471;-74
2022/11/24 12:08:55;;;;;;;1.77;0.90;;;9.70;99.90;;;;;;5009569;28;20179;-73
2022/11/24 12:11:27;;;;;;;;;;;9.60;99.90;;;;;;5009831;28;20115;-74
2022/11/24 12:14:28;;;;;;;6.85;1.30;;;9.70;99.90;;;;;;5005921;28;20043;-74
2022/11/24 12:16:58;;;;;;;1.52;0.82;;;9.80;99.90;;;;;;5010072;28;20120;-73
2022/11/24 12:19:30;;;;;;;2.15;1.00;;;9.70;99.90;;;;;;5010274;28;20127;-74
2022/11/24 12:22:57;;;;;;;3.00;1.02;;;9.80;99.90;;;;;;4995900;28;20057;-73
2022/11/24 12:25:31;;;;;;;2.35;0.93;;;9.80;99.90;;;;;;4921131;28;20043;-74
2022/11/24 12:28:13;;;;;;;9.77;1.83;;;9.90;99.90;;;;;;4939985;28;20622;-73
2022/11/24 12:31:05;;;;;;;5.43;1.13;;;9.80;99.90;;;;;;4991035;28;20065;-74
2022/11/24 12:33:47;;;;;;;2.47;1.30;;;9.80;99.90;;;;;;5006881;28;20046;-74
2022/11/24 12:36:51;;;;;;;3.28;1.02;;;9.90;99.90;;;;;;4980310;28;20084;-74
2022/11/24 12:39:35;;;;;;;2.75;0.88;;;9.90;99.90;;;;;;4972335;28;20078;-73
2022/11/24 12:42:14;;;;;;;0.85;0.52;;;9.90;99.90;;;;;;4976479;28;20316;-74
2022/11/24 12:44:49;;;;;;;2.60;0.63;;;9.90;99.90;;;;;;5013875;28;20041;-74
2022/11/24 12:47:40;;;;;;;3.35;0.90;;;9.90;99.90;;;;;;4997945;28;20400;-73
2022/11/24 12:50:17;;;;;;;3.30;0.80;;;9.90;99.90;;;;;;5014285;28;22157;-74
2022/11/24 12:52:59;;;;;;;4.65;1.27;;;9.90;99.90;;;;;;5013652;28;20038;-74
2022/11/24 12:55:26;;;;;;;1.45;0.77;;;10.00;99.90;;;;;;4994346;28;20582;-74
2022/11/24 12:58:27;;;;;;;3.70;1.40;;;10.00;99.90;;;;;;4999424;28;20072;-73
2022/11/24 13:01:39;;;;;;;1.40;0.47;;;10.00;99.90;;;;;;4997892;28;20042;-73
2022/11/24 13:04:19;;;;;;;1.30;0.55;;;10.10;99.90;;;;;;4956860;28;20051;-73
2022/11/24 13:07:02;;;;;;;4.25;0.50;;;10.00;99.90;;;;;;4995565;28;20057;-73
2022/11/24 13:09:28;;;;;;;4.15;0.95;;;10.10;99.90;;;;;;4997616;28;20100;-73
2022/11/24 13:12:13;;;;;;;4.03;0.77;;;10.10;99.90;;;;;;5000939;28;20422;-74
2022/11/24 13:14:43;;;;;;;3.22;0.77;;;10.00;99.90;;;;;;5018317;28;20057;-73